ロメ の空港の天気 - METARとTAF

ロメ空港 ( DXXX / LFW ) - トーゴ ロメ
飛行場実況気象(Metar)
観測時間06/17 23:00 GMT (06/17 23:00 UTC)
風向・風速南西 3m/s
視程10km以上
天気現象
少しの雲 雲底高度 340m
気温26℃
湿度94%
気圧1016hPa
METARDXXX 172300Z 23006KT 9999 FEW011 26/25 Q1016 NOSIG
過去の天気等 Google飛行場航空写真 Wunderground天気予報

過去48時間のMETAR

飛行場予報(TAF)
発表時間: 6/17 23:00 GMT (6/17 23:00 UTC)
予報対象時間: 18日0時 GMT ~ 19日6時 GMT
風向・風速西 3m/s
視程10km以上
少しの雲 雲底高度 340m
18日8時 GMT ~ 18日10時 GMT に徐々に
風向・風速南南西 6m/s
18日15時 GMT ~ 18日20時 GMT に一時的に
天気現象
全天の8割程度の雲 雲底高度 370m
少しの積乱雲 雲底高度 610m
18日22時 GMT ~ 18日24時 GMT に徐々に
風向・風速西 3m/s
TAF DXXX 172300Z 1800/1906 26005KT 9999 FEW011
BECMG 1808/1810 20012KT
TEMPO 1815/1820 TS BKN012 FEW020CB
BECMG 1822/1824 26005KT